createdAt,value
2023-05-07T00:02:26.813Z,10.15
2023-05-07T00:04:53.917Z,9.38
2023-05-07T00:07:20.815Z,9.88
2023-05-07T00:09:47.562Z,11.19
2023-05-07T00:12:14.794Z,10.06
2023-05-07T00:14:41.861Z,9.20
2023-05-07T00:17:08.988Z,9.25
2023-05-07T00:19:35.765Z,9.46
2023-05-07T00:22:02.567Z,9.89
2023-05-07T00:24:29.465Z,9.94
2023-05-07T00:26:56.541Z,8.50
2023-05-07T00:29:23.466Z,9.01
2023-05-07T00:31:51.508Z,8.24
2023-05-07T00:34:18.302Z,8.71
2023-05-07T00:36:45.656Z,9.26
2023-05-07T00:39:12.522Z,9.84
2023-05-07T00:41:39.349Z,6.61
2023-05-07T00:44:06.261Z,7.79
2023-05-07T00:46:34.172Z,7.06
2023-05-07T00:49:01.878Z,5.64
2023-05-07T00:51:30.018Z,7.15
2023-05-07T00:53:56.901Z,7.66
2023-05-07T00:56:24.770Z,7.39
2023-05-07T00:58:51.809Z,7.75
2023-05-07T01:01:18.538Z,8.50
2023-05-07T01:03:46.185Z,7.85
2023-05-07T01:06:17.642Z,8.28
2023-05-07T01:08:46.279Z,8.55
2023-05-07T01:11:13.608Z,7.79
2023-05-07T01:13:41.433Z,7.03
2023-05-07T01:16:10.708Z,7.82
2023-05-07T01:18:37.950Z,7.83
2023-05-07T01:21:06.211Z,7.47
2023-05-07T01:23:34.767Z,9.19
2023-05-07T01:26:01.616Z,8.32
2023-05-07T01:28:30.357Z,7.12
2023-05-07T01:31:03.733Z,6.36
2023-05-07T01:33:36.112Z,7.27
2023-05-07T01:36:07.353Z,7.87
2023-05-07T01:38:35.607Z,9.25
2023-05-07T01:41:03.143Z,8.49
2023-05-07T01:43:31.844Z,9.10
2023-05-07T01:46:00.132Z,8.30
2023-05-07T01:48:27.581Z,8.86
2023-05-07T01:50:55.023Z,7.57
2023-05-07T01:53:21.760Z,8.54
2023-05-07T01:55:48.517Z,9.07
2023-05-07T01:58:16.319Z,8.47
2023-05-07T02:00:43.162Z,8.48
2023-05-07T02:03:10.376Z,9.27
2023-05-07T02:05:47.322Z,9.27
2023-05-07T02:08:31.167Z,9.57
2023-05-07T02:10:58.598Z,9.80
2023-05-07T02:13:28.168Z,9.27
2023-05-07T02:15:55.454Z,9.67
2023-05-07T02:18:24.395Z,9.44
2023-05-07T02:20:51.313Z,7.58
2023-05-07T02:23:18.200Z,6.63
2023-05-07T02:25:45.615Z,7.08
2023-05-07T02:28:12.972Z,7.82
2023-05-07T02:30:46.526Z,8.21
2023-05-07T02:33:15.051Z,7.49
2023-05-07T02:35:42.271Z,8.44
2023-05-07T02:38:11.755Z,8.67
2023-05-07T02:40:40.738Z,9.06
2023-05-07T02:43:07.696Z,9.19
2023-05-07T02:45:35.103Z,9.94
2023-05-07T02:48:03.267Z,9.55
2023-05-07T02:50:30.829Z,9.19
2023-05-07T02:52:57.810Z,7.82
2023-05-07T02:55:24.790Z,8.23
2023-05-07T02:57:51.659Z,8.82
2023-05-07T03:00:20.358Z,9.00
2023-05-07T03:02:58.469Z,9.24
2023-05-07T03:05:25.304Z,7.72
2023-05-07T03:07:52.254Z,9.16
2023-05-07T03:10:19.700Z,9.34
2023-05-07T03:12:46.518Z,8.95
2023-05-07T03:15:16.912Z,8.95
2023-05-07T03:17:43.787Z,8.69
2023-05-07T03:20:12.127Z,9.27
2023-05-07T03:22:40.817Z,8.95
2023-05-07T03:25:08.537Z,8.96
2023-05-07T03:27:35.708Z,8.55
2023-05-07T03:30:02.689Z,8.74
2023-05-07T03:32:29.596Z,8.39
2023-05-07T03:34:56.977Z,9.07
2023-05-07T03:37:24.429Z,8.41
2023-05-07T03:39:51.724Z,8.75
2023-05-07T03:42:19.112Z,8.59
2023-05-07T03:44:49.042Z,7.86
2023-05-07T03:47:15.789Z,7.75
2023-05-07T03:49:42.518Z,7.72
2023-05-07T03:52:09.479Z,7.78
2023-05-07T03:54:36.344Z,7.73
2023-05-07T03:57:03.367Z,8.18
2023-05-07T03:59:30.118Z,7.57
2023-05-07T04:01:57.791Z,7.61
2023-05-07T04:04:26.548Z,7.96
2023-05-07T04:06:54.393Z,6.69
2023-05-07T04:09:22.392Z,6.13
2023-05-07T04:11:49.110Z,6.11
2023-05-07T04:14:15.875Z,5.50
2023-05-07T04:16:42.745Z,6.27
2023-05-07T04:19:09.579Z,6.43
2023-05-07T04:21:39.567Z,6.58
2023-05-07T04:24:06.560Z,5.43
2023-05-07T04:26:33.820Z,4.07
2023-05-07T04:29:01.046Z,5.67
2023-05-07T04:31:33.109Z,4.99
2023-05-07T04:34:00.110Z,5.92
2023-05-07T04:36:28.715Z,7.49
2023-05-07T04:39:04.095Z,7.61
2023-05-07T04:41:31.521Z,7.74
2023-05-07T04:44:00.060Z,7.50
2023-05-07T04:46:29.853Z,7.77
2023-05-07T04:48:58.282Z,7.70
2023-05-07T04:51:25.075Z,6.69
2023-05-07T04:53:51.916Z,8.05
2023-05-07T04:56:18.763Z,6.30
2023-05-07T04:58:47.453Z,8.29
2023-05-07T05:01:16.146Z,6.60
2023-05-07T05:03:43.268Z,6.38
2023-05-07T05:06:11.096Z,8.19
2023-05-07T05:08:38.317Z,8.06
2023-05-07T05:11:05.509Z,7.32
2023-05-07T05:13:34.772Z,6.73
2023-05-07T05:16:07.947Z,7.35
2023-05-07T05:18:35.961Z,6.89
2023-05-07T05:21:02.781Z,8.33
2023-05-07T05:23:30.190Z,6.93
2023-05-07T05:26:01.166Z,5.56
2023-05-07T05:28:31.571Z,6.34
2023-05-07T05:30:58.416Z,7.74
2023-05-07T05:33:27.557Z,8.13
2023-05-07T05:35:57.058Z,7.13
2023-05-07T05:38:23.889Z,7.89
2023-05-07T05:40:51.206Z,8.06
2023-05-07T05:43:19.095Z,8.80
2023-05-07T05:45:45.861Z,9.35
2023-05-07T05:48:13.318Z,9.50
2023-05-07T05:50:40.808Z,10.56
2023-05-07T05:53:07.945Z,9.82
2023-05-07T05:55:35.415Z,11.18
2023-05-07T05:58:02.482Z,11.11
2023-05-07T06:00:31.180Z,10.82
2023-05-07T06:03:03.187Z,10.63
2023-05-07T06:05:30.129Z,11.36
2023-05-07T06:07:57.711Z,12.48
2023-05-07T06:10:25.623Z,11.53
2023-05-07T06:12:52.491Z,11.52
2023-05-07T06:15:19.612Z,11.40
2023-05-07T06:17:46.814Z,11.36
2023-05-07T06:20:14.041Z,13.17
2023-05-07T06:22:42.041Z,13.25
2023-05-07T06:25:11.725Z,13.22
2023-05-07T06:27:40.703Z,14.18
2023-05-07T06:30:08.715Z,13.73
2023-05-07T06:32:35.714Z,13.36
2023-05-07T06:35:02.464Z,14.59
2023-05-07T06:37:29.182Z,14.39
2023-05-07T06:40:00.655Z,13.65
2023-05-07T06:42:28.179Z,14.07
2023-05-07T06:44:59.258Z,14.09
2023-05-07T06:47:27.098Z,14.48
2023-05-07T06:49:55.881Z,14.52
2023-05-07T06:52:26.119Z,15.93
2023-05-07T06:54:54.432Z,14.23
2023-05-07T06:57:23.106Z,14.09
2023-05-07T06:59:50.297Z,13.64
2023-05-07T07:02:18.309Z,14.70
2023-05-07T07:04:46.786Z,15.44
2023-05-07T07:07:14.452Z,15.09
2023-05-07T07:09:43.687Z,13.67
2023-05-07T07:12:11.192Z,16.20
2023-05-07T07:14:40.374Z,15.71
2023-05-07T07:17:07.791Z,15.14
2023-05-07T07:19:35.198Z,16.36
2023-05-07T07:22:03.843Z,15.49
2023-05-07T07:24:30.728Z,17.58
2023-05-07T07:27:01.657Z,17.34
2023-05-07T07:29:29.248Z,17.30
2023-05-07T07:31:57.656Z,17.62
2023-05-07T07:34:25.281Z,18.63
2023-05-07T07:36:52.139Z,15.82
2023-05-07T07:39:20.346Z,15.44
2023-05-07T07:41:50.382Z,15.27
2023-05-07T07:44:19.067Z,16.49
2023-05-07T07:46:51.739Z,15.70
2023-05-07T07:49:20.197Z,18.70
2023-05-07T07:51:47.669Z,17.25
2023-05-07T07:54:14.765Z,17.88
2023-05-07T07:56:42.500Z,17.88
2023-05-07T07:59:10.820Z,18.01
2023-05-07T08:01:40.450Z,16.99
2023-05-07T08:04:08.672Z,16.72
2023-05-07T08:06:39.485Z,15.57
2023-05-07T08:09:07.177Z,15.56
2023-05-07T08:11:34.284Z,16.91
2023-05-07T08:14:01.823Z,16.37
2023-05-07T08:16:31.051Z,17.29
2023-05-07T08:18:59.715Z,18.35
2023-05-07T08:21:27.276Z,19.34
2023-05-07T08:23:54.838Z,17.44
2023-05-07T08:26:22.050Z,17.00
2023-05-07T08:28:49.515Z,19.46
2023-05-07T08:31:16.535Z,19.31
2023-05-07T08:33:45.702Z,19.03
2023-05-07T08:36:12.561Z,19.49
2023-05-07T08:38:42.141Z,18.61
2023-05-07T08:41:11.309Z,18.96
2023-05-07T08:43:42.613Z,16.91
2023-05-07T08:46:12.549Z,18.09
2023-05-07T08:48:43.466Z,18.95
2023-05-07T08:51:14.541Z,19.72
2023-05-07T08:53:42.714Z,19.31
2023-05-07T08:56:13.518Z,18.48
2023-05-07T08:58:41.007Z,20.91
2023-05-07T09:01:15.399Z,18.91
2023-05-07T09:03:47.901Z,16.83
2023-05-07T09:06:17.892Z,19.51
2023-05-07T09:08:54.752Z,20.69
2023-05-07T09:11:26.091Z,19.27
2023-05-07T09:13:57.550Z,20.96
2023-05-07T09:16:26.857Z,19.94
2023-05-07T09:18:56.149Z,20.94
2023-05-07T09:21:24.371Z,20.62
2023-05-07T09:23:56.418Z,20.87
2023-05-07T09:26:29.845Z,19.80
2023-05-07T09:28:56.691Z,22.20
2023-05-07T09:31:24.772Z,22.85
2023-05-07T09:33:54.454Z,19.99
2023-05-07T09:36:21.924Z,21.41
2023-05-07T09:38:52.477Z,20.96
2023-05-07T09:41:20.430Z,20.57
2023-05-07T09:44:02.725Z,24.22
2023-05-07T09:46:39.538Z,23.97
2023-05-07T09:49:24.603Z,22.81
2023-05-07T09:52:00.136Z,20.84
2023-05-07T09:54:28.450Z,21.44
2023-05-07T09:56:58.068Z,22.35
2023-05-07T09:59:29.942Z,25.37
2023-05-07T10:02:05.023Z,24.82
2023-05-07T10:04:38.716Z,25.40
2023-05-07T10:07:07.076Z,25.20
2023-05-07T10:09:39.707Z,21.14
2023-05-07T10:12:11.189Z,23.25
2023-05-07T10:14:38.498Z,25.69
2023-05-07T10:17:08.031Z,24.54
2023-05-07T10:19:35.898Z,23.54
2023-05-07T10:22:06.232Z,27.29
2023-05-07T10:24:39.040Z,25.18
2023-05-07T10:27:13.581Z,24.29
2023-05-07T10:29:50.686Z,22.86
2023-05-07T10:32:39.364Z,22.61
2023-05-07T10:35:15.283Z,21.94
2023-05-07T10:37:42.899Z,24.41
2023-05-07T10:40:11.820Z,21.10
2023-05-07T10:42:38.870Z,22.26
2023-05-07T10:45:15.790Z,24.97
2023-05-07T10:48:29.039Z,21.26
2023-05-07T10:51:21.630Z,22.92
2023-05-07T10:54:12.317Z,24.67
2023-05-07T10:56:45.529Z,26.91
2023-05-07T10:59:31.776Z,26.99
2023-05-07T11:02:07.581Z,24.68
2023-05-07T11:04:43.004Z,23.42
2023-05-07T11:07:31.170Z,25.28
2023-05-07T11:10:07.245Z,22.61
2023-05-07T11:12:57.322Z,25.34
2023-05-07T11:15:38.828Z,27.42
2023-05-07T11:18:14.668Z,24.20
2023-05-07T11:20:57.897Z,25.45
2023-05-07T11:23:35.170Z,27.65
2023-05-07T11:26:15.698Z,25.51
2023-05-07T11:28:44.786Z,27.61
2023-05-07T11:31:12.706Z,23.94
2023-05-07T11:33:41.389Z,25.06
2023-05-07T11:36:13.716Z,25.13
2023-05-07T11:38:46.068Z,26.85
2023-05-07T11:41:12.827Z,21.98
2023-05-07T11:43:54.104Z,22.98
2023-05-07T11:46:21.529Z,22.26
2023-05-07T11:48:48.688Z,25.17
2023-05-07T11:51:20.508Z,24.42
2023-05-07T11:53:47.284Z,22.38
2023-05-07T11:56:16.306Z,23.86
2023-05-07T11:58:44.522Z,22.57
2023-05-07T12:01:12.795Z,23.35
2023-05-07T12:03:44.954Z,24.82
2023-05-07T12:06:13.076Z,23.83
2023-05-07T12:08:42.112Z,25.21
2023-05-07T12:11:12.420Z,24.69
2023-05-07T12:13:39.328Z,23.50
2023-05-07T12:16:08.091Z,24.62
2023-05-07T12:18:38.338Z,23.71
2023-05-07T12:21:07.735Z,23.85
2023-05-07T12:23:36.796Z,22.44
2023-05-07T12:26:07.080Z,23.12
2023-05-07T12:28:39.726Z,23.74
2023-05-07T12:31:07.231Z,23.53
2023-05-07T12:33:35.360Z,22.63
2023-05-07T12:36:06.981Z,23.32
2023-05-07T12:38:38.425Z,23.45
2023-05-07T12:41:05.983Z,22.67
2023-05-07T12:43:32.794Z,24.37
2023-05-07T12:46:02.829Z,21.54
2023-05-07T12:48:29.843Z,23.42
2023-05-07T12:50:58.330Z,19.92
2023-05-07T12:53:27.314Z,22.39
2023-05-07T12:55:56.715Z,21.22
2023-05-07T12:58:28.282Z,20.34
2023-05-07T13:01:00.377Z,23.18
2023-05-07T13:03:33.357Z,22.25
2023-05-07T13:06:03.631Z,23.00
2023-05-07T13:08:35.158Z,23.61
2023-05-07T13:11:06.138Z,20.26
2023-05-07T13:13:34.197Z,21.36
2023-05-07T13:16:03.020Z,19.51
2023-05-07T13:18:33.997Z,20.76
2023-05-07T13:21:01.972Z,22.74
2023-05-07T13:23:29.810Z,19.95
2023-05-07T13:25:57.649Z,20.77
2023-05-07T13:28:25.394Z,20.88
2023-05-07T13:30:55.700Z,20.78
2023-05-07T13:33:22.772Z,21.51
2023-05-07T13:35:49.627Z,20.40
2023-05-07T13:38:17.269Z,20.22
2023-05-07T13:40:44.092Z,19.57
2023-05-07T13:43:11.846Z,20.51
2023-05-07T13:45:38.965Z,18.79
2023-05-07T13:48:06.035Z,18.52
2023-05-07T13:50:33.096Z,18.96
2023-05-07T13:53:00.122Z,17.92
2023-05-07T13:55:27.146Z,20.20
2023-05-07T13:58:02.193Z,18.29
2023-05-07T14:00:30.338Z,20.12
2023-05-07T14:02:58.973Z,18.34
2023-05-07T14:05:26.077Z,18.99
2023-05-07T14:07:53.163Z,19.31
2023-05-07T14:10:20.950Z,20.07
2023-05-07T14:12:48.690Z,20.13
2023-05-07T14:15:17.286Z,20.10
2023-05-07T14:17:45.127Z,19.05
2023-05-07T14:20:13.950Z,20.38
2023-05-07T14:22:41.048Z,17.90
2023-05-07T14:25:08.465Z,17.98
2023-05-07T14:27:35.201Z,18.50
2023-05-07T14:30:01.982Z,18.28
2023-05-07T14:32:29.052Z,18.29
2023-05-07T14:34:55.844Z,17.34
2023-05-07T14:37:22.550Z,17.40
2023-05-07T14:39:51.020Z,19.69
2023-05-07T14:42:18.892Z,17.64
2023-05-07T14:44:48.854Z,17.73
2023-05-07T14:47:17.578Z,19.13
2023-05-07T14:49:45.912Z,17.99
2023-05-07T14:52:13.404Z,18.37
2023-05-07T14:54:40.173Z,17.58
2023-05-07T14:57:07.934Z,18.32
2023-05-07T14:59:35.185Z,18.14
2023-05-07T15:02:04.665Z,18.49
2023-05-07T15:04:33.954Z,18.36
2023-05-07T15:07:01.010Z,18.23
2023-05-07T15:09:27.816Z,17.72
2023-05-07T15:11:54.812Z,17.06
2023-05-07T15:14:23.118Z,16.00
2023-05-07T15:16:50.880Z,17.52
2023-05-07T15:19:18.111Z,16.65
2023-05-07T15:21:45.055Z,16.46
2023-05-07T15:24:11.820Z,18.30
2023-05-07T15:26:38.656Z,17.55
2023-05-07T15:29:11.116Z,18.22
2023-05-07T15:31:40.112Z,17.58
2023-05-07T15:34:07.393Z,17.17
2023-05-07T15:36:34.794Z,17.53
2023-05-07T15:39:05.657Z,17.45
2023-05-07T15:41:33.142Z,19.21
2023-05-07T15:44:00.434Z,19.24
2023-05-07T15:46:28.223Z,17.19
2023-05-07T15:48:55.860Z,17.78
2023-05-07T15:51:23.709Z,17.33
2023-05-07T15:53:52.070Z,17.98
2023-05-07T15:56:19.085Z,16.54
2023-05-07T15:58:46.517Z,15.82
2023-05-07T16:01:13.316Z,15.45
2023-05-07T16:03:41.258Z,16.03
2023-05-07T16:06:12.351Z,17.30
2023-05-07T16:08:40.465Z,16.07
2023-05-07T16:11:07.305Z,17.09
2023-05-07T16:13:35.455Z,15.80
2023-05-07T16:16:02.460Z,15.65
2023-05-07T16:18:29.596Z,15.31
2023-05-07T16:20:56.499Z,15.38
2023-05-07T16:23:23.383Z,14.79
2023-05-07T16:25:50.123Z,15.95
2023-05-07T16:28:16.959Z,16.00
2023-05-07T16:30:44.074Z,16.39
2023-05-07T16:33:11.112Z,16.59
2023-05-07T16:35:37.879Z,14.13
2023-05-07T16:38:10.084Z,18.16
2023-05-07T16:40:40.699Z,17.32
2023-05-07T16:43:07.787Z,17.27
2023-05-07T16:45:34.754Z,17.94
2023-05-07T16:48:03.293Z,18.10
2023-05-07T16:50:30.492Z,18.27
2023-05-07T16:52:57.210Z,17.61
2023-05-07T16:55:24.093Z,18.78
2023-05-07T16:57:51.007Z,18.76
2023-05-07T17:00:18.198Z,17.92
2023-05-07T17:02:47.389Z,17.99
2023-05-07T17:05:14.672Z,18.76
2023-05-07T17:07:41.855Z,17.60
2023-05-07T17:10:08.990Z,17.01
2023-05-07T17:12:36.047Z,17.13
2023-05-07T17:15:04.037Z,17.06
2023-05-07T17:17:30.811Z,17.45
2023-05-07T17:19:59.089Z,17.52
2023-05-07T17:22:26.627Z,16.68
2023-05-07T17:24:53.364Z,15.85
2023-05-07T17:27:20.993Z,16.15
2023-05-07T17:29:47.720Z,16.85
2023-05-07T17:32:14.898Z,17.56
2023-05-07T17:34:41.763Z,15.13
2023-05-07T17:37:08.687Z,15.41
2023-05-07T17:39:35.723Z,15.18
2023-05-07T17:42:02.680Z,15.09
2023-05-07T17:44:29.485Z,15.90
2023-05-07T17:46:57.036Z,16.72
2023-05-07T17:49:24.008Z,15.63
2023-05-07T17:51:54.878Z,15.99
2023-05-07T17:54:24.320Z,16.18
2023-05-07T17:56:51.241Z,15.66
2023-05-07T17:59:18.242Z,15.97
2023-05-07T18:01:45.698Z,15.39
2023-05-07T18:04:12.476Z,16.83
2023-05-07T18:06:40.005Z,17.15
2023-05-07T18:09:07.168Z,15.77
2023-05-07T18:11:34.159Z,14.71
2023-05-07T18:14:01.266Z,15.72
2023-05-07T18:16:28.160Z,16.56
2023-05-07T18:18:55.765Z,16.47
2023-05-07T18:21:22.506Z,17.13
2023-05-07T18:23:49.875Z,16.05
2023-05-07T18:26:20.192Z,17.42
2023-05-07T18:28:50.244Z,16.33
2023-05-07T18:31:21.172Z,16.95
2023-05-07T18:33:53.195Z,16.84
2023-05-07T18:36:20.242Z,17.00
2023-05-07T18:38:47.020Z,17.08
2023-05-07T18:41:13.829Z,16.81
2023-05-07T18:43:40.693Z,16.43
2023-05-07T18:46:07.490Z,16.47
2023-05-07T18:48:34.416Z,16.66
2023-05-07T18:51:01.491Z,16.31
2023-05-07T18:53:29.078Z,16.07
2023-05-07T18:55:55.847Z,15.40
2023-05-07T18:58:22.667Z,16.09
2023-05-07T19:00:50.062Z,15.67
2023-05-07T19:03:17.274Z,15.78
2023-05-07T19:05:45.269Z,15.52
2023-05-07T19:08:12.291Z,14.76
2023-05-07T19:10:39.251Z,15.57
2023-05-07T19:13:06.782Z,15.11
2023-05-07T19:15:33.786Z,15.58
2023-05-07T19:18:00.948Z,15.13
2023-05-07T19:20:29.162Z,15.38
2023-05-07T19:22:56.654Z,15.64
2023-05-07T19:25:23.807Z,15.07
2023-05-07T19:27:51.535Z,15.88
2023-05-07T19:30:19.049Z,15.46
2023-05-07T19:32:46.799Z,15.46
2023-05-07T19:35:13.852Z,15.34
2023-05-07T19:37:41.134Z,15.86
2023-05-07T19:40:09.489Z,15.56
2023-05-07T19:42:36.669Z,14.78
2023-05-07T19:45:04.906Z,14.43
2023-05-07T19:47:32.592Z,15.40
2023-05-07T19:49:59.498Z,16.12
2023-05-07T19:52:26.822Z,16.04
2023-05-07T19:54:53.594Z,15.28
2023-05-07T19:57:20.594Z,14.50
2023-05-07T19:59:47.681Z,15.34
2023-05-07T20:02:16.086Z,14.25
2023-05-07T20:04:43.053Z,15.24
2023-05-07T20:07:09.870Z,14.45
2023-05-07T20:09:36.968Z,14.68
2023-05-07T20:12:04.183Z,14.52
2023-05-07T20:14:31.719Z,14.95
2023-05-07T20:16:58.714Z,15.31
2023-05-07T20:19:26.051Z,15.33
2023-05-07T20:21:53.719Z,13.97
2023-05-07T20:24:20.832Z,15.41
2023-05-07T20:26:47.713Z,13.38
2023-05-07T20:29:14.434Z,12.91
2023-05-07T20:31:41.762Z,12.82
2023-05-07T20:34:12.078Z,12.69
2023-05-07T20:36:38.966Z,12.44
2023-05-07T20:39:06.008Z,11.93
2023-05-07T20:41:32.881Z,13.08
2023-05-07T20:44:00.445Z,12.39
2023-05-07T20:46:28.161Z,13.60
2023-05-07T20:48:55.146Z,13.88
2023-05-07T20:51:22.016Z,13.25
2023-05-07T20:53:48.853Z,13.58
2023-05-07T20:56:16.497Z,13.29
2023-05-07T20:58:43.473Z,14.06
2023-05-07T21:01:10.432Z,14.32
2023-05-07T21:03:37.527Z,14.36
2023-05-07T21:06:04.715Z,14.52
2023-05-07T21:08:31.854Z,13.94
2023-05-07T21:10:59.271Z,13.62
2023-05-07T21:13:26.502Z,13.06
2023-05-07T21:15:53.765Z,13.16
2023-05-07T21:18:20.941Z,12.95
2023-05-07T21:20:48.192Z,13.23
2023-05-07T21:23:15.119Z,12.95
2023-05-07T21:25:42.473Z,14.11
2023-05-07T21:28:09.346Z,13.12
2023-05-07T21:30:37.193Z,11.29
2023-05-07T21:33:06.236Z,12.94
2023-05-07T21:35:36.100Z,13.05
2023-05-07T21:38:03.514Z,12.31
2023-05-07T21:40:30.224Z,12.01
2023-05-07T21:42:58.437Z,13.60
2023-05-07T21:45:25.388Z,13.76
2023-05-07T21:47:52.211Z,13.85
2023-05-07T21:50:19.392Z,11.80
2023-05-07T21:52:46.872Z,11.44
2023-05-07T21:55:14.175Z,11.26
2023-05-07T21:57:45.541Z,10.48
2023-05-07T22:00:16.513Z,10.59
2023-05-07T22:02:43.873Z,11.42
2023-05-07T22:05:10.756Z,10.16
2023-05-07T22:07:37.530Z,9.90
2023-05-07T22:10:04.611Z,9.48
2023-05-07T22:12:32.133Z,9.89
2023-05-07T22:14:59.108Z,10.16
2023-05-07T22:17:26.037Z,9.65
2023-05-07T22:19:53.275Z,10.08
2023-05-07T22:22:20.246Z,10.40
2023-05-07T22:24:47.288Z,9.19
2023-05-07T22:27:14.683Z,11.53
2023-05-07T22:29:41.405Z,11.94
2023-05-07T22:32:10.576Z,11.97
2023-05-07T22:34:39.622Z,11.59
2023-05-07T22:37:06.491Z,12.47
2023-05-07T22:39:35.354Z,11.11
2023-05-07T22:42:02.478Z,11.81
2023-05-07T22:44:29.458Z,10.51
2023-05-07T22:46:56.189Z,11.20
2023-05-07T22:49:22.880Z,10.87
2023-05-07T22:51:49.744Z,10.10
2023-05-07T22:54:16.532Z,9.34
2023-05-07T22:56:43.321Z,10.16
2023-05-07T22:59:10.033Z,11.53
2023-05-07T23:01:37.184Z,10.71
2023-05-07T23:04:04.265Z,9.35
2023-05-07T23:06:31.250Z,10.92
2023-05-07T23:08:58.937Z,10.98
2023-05-07T23:11:26.427Z,8.95
2023-05-07T23:13:53.250Z,8.78
2023-05-07T23:16:20.035Z,8.54
2023-05-07T23:18:47.917Z,9.19
2023-05-07T23:21:14.712Z,10.13
2023-05-07T23:23:41.449Z,11.03
2023-05-07T23:26:08.207Z,10.72
2023-05-07T23:28:34.920Z,11.07
2023-05-07T23:31:01.650Z,10.93
2023-05-07T23:33:28.573Z,10.45
2023-05-07T23:35:59.942Z,10.36
2023-05-07T23:38:26.686Z,11.25
2023-05-07T23:40:54.465Z,11.20
2023-05-07T23:43:22.196Z,10.33
2023-05-07T23:45:49.628Z,10.86
2023-05-07T23:48:16.511Z,10.01
2023-05-07T23:50:43.588Z,9.99
2023-05-07T23:53:10.508Z,9.01
2023-05-07T23:55:37.710Z,9.10
2023-05-07T23:58:04.620Z,10.13
